createdAt,value
2018-06-08T00:01:45.599Z,16.57
2018-06-08T00:04:15.870Z,15.77
2018-06-08T00:06:46.175Z,16.43
2018-06-08T00:09:17.039Z,15.17
2018-06-08T00:11:47.530Z,13.73
2018-06-08T00:14:17.878Z,14.63
2018-06-08T00:16:48.260Z,14.37
2018-06-08T00:19:18.589Z,17.77
2018-06-08T00:21:48.839Z,16.23
2018-06-08T00:24:19.189Z,15.97
2018-06-08T00:26:49.680Z,15.73
2018-06-08T00:29:20.001Z,16.17
2018-06-08T00:31:50.729Z,16.63
2018-06-08T00:34:21.208Z,17.77
2018-06-08T00:36:51.499Z,18.27
2018-06-08T00:39:22.038Z,17.23
2018-06-08T00:41:52.289Z,17.43
2018-06-08T00:44:22.948Z,18.33
2018-06-08T00:46:53.179Z,17.77
2018-06-08T00:49:23.679Z,18.17
2018-06-08T00:51:53.929Z,17.67
2018-06-08T00:54:24.322Z,17.33
2018-06-08T00:57:07.519Z,18.00
2018-06-08T00:59:37.870Z,18.40
2018-06-08T01:02:08.790Z,18.73
2018-06-08T01:04:39.705Z,19.23
2018-06-08T01:07:10.070Z,19.40
2018-06-08T01:09:40.349Z,18.47
2018-06-08T01:12:10.866Z,18.77
2018-06-08T01:14:42.584Z,18.90
2018-06-08T01:17:12.518Z,19.10
2018-06-08T01:19:43.026Z,18.13
2018-06-08T01:22:13.337Z,19.77
2018-06-08T01:24:43.075Z,18.97
2018-06-08T01:27:13.305Z,18.57
2018-06-08T01:29:43.695Z,18.70
2018-06-08T01:32:13.458Z,17.70
2018-06-08T01:34:43.842Z,18.03
2018-06-08T01:37:13.853Z,17.60
2018-06-08T01:39:44.245Z,18.50
2018-06-08T01:42:14.657Z,19.57
2018-06-08T01:44:45.126Z,17.80
2018-06-08T01:47:15.377Z,19.63
2018-06-08T01:49:45.937Z,20.00
2018-06-08T01:52:16.936Z,20.27
2018-06-08T01:54:47.236Z,21.70
2018-06-08T01:57:17.447Z,19.60
2018-06-08T01:59:47.627Z,20.23
2018-06-08T02:02:18.051Z,19.37
2018-06-08T02:04:48.429Z,19.03
2018-06-08T02:07:18.575Z,20.83
2018-06-08T02:09:49.143Z,19.17
2018-06-08T02:12:19.694Z,20.17
2018-06-08T02:14:50.526Z,21.53
2018-06-08T02:17:21.084Z,19.37
2018-06-08T02:19:51.093Z,17.80
2018-06-08T02:22:21.547Z,18.33
2018-06-08T02:24:52.207Z,19.23
2018-06-08T02:27:22.460Z,19.40
2018-06-08T02:29:52.499Z,18.87
2018-06-08T02:32:22.971Z,19.27
2018-06-08T02:34:53.333Z,19.93
2018-06-08T02:37:23.220Z,17.97
2018-06-08T02:39:53.500Z,18.27
2018-06-08T02:42:24.230Z,19.33
2018-06-08T02:44:54.582Z,19.53
2018-06-08T02:47:24.900Z,16.13
2018-06-08T02:49:55.320Z,17.27
2018-06-08T02:52:26.469Z,20.63
2018-06-08T02:54:56.620Z,17.43
2018-06-08T02:57:26.892Z,20.50
2018-06-08T02:59:56.611Z,18.33
2018-06-08T03:02:27.100Z,19.70
2018-06-08T03:04:57.449Z,18.70
2018-06-08T03:07:28.095Z,17.53
2018-06-08T03:09:58.390Z,19.37
2018-06-08T03:12:28.794Z,18.90
2018-06-08T03:14:59.109Z,18.57
2018-06-08T03:17:29.590Z,22.47
2018-06-08T03:20:00.000Z,17.70
2018-06-08T03:22:30.189Z,17.80
2018-06-08T03:25:01.012Z,18.47
2018-06-08T03:27:31.350Z,20.40
2018-06-08T03:30:01.163Z,18.27
2018-06-08T03:32:31.399Z,17.67
2018-06-08T03:35:01.977Z,17.97
2018-06-08T03:37:32.111Z,16.63
2018-06-08T03:40:02.174Z,16.27
2018-06-08T03:42:32.569Z,18.30
2018-06-08T03:45:02.729Z,16.80
2018-06-08T03:47:33.009Z,16.57
2018-06-08T03:50:03.203Z,15.77
2018-06-08T03:52:33.525Z,15.10
2018-06-08T03:55:03.667Z,14.00
2018-06-08T03:57:33.833Z,15.77
2018-06-08T04:00:03.960Z,14.70
2018-06-08T04:02:33.436Z,15.93
2018-06-08T04:05:03.792Z,16.07
2018-06-08T04:07:34.040Z,15.73
2018-06-08T04:10:03.920Z,15.47
2018-06-08T04:12:34.090Z,15.90
2018-06-08T04:15:04.425Z,17.20
2018-06-08T04:17:34.670Z,18.47
2018-06-08T04:20:04.457Z,18.37
2018-06-08T04:22:34.990Z,17.80
2018-06-08T04:25:04.643Z,18.40
2018-06-08T04:27:34.959Z,20.90
2018-06-08T04:30:04.913Z,22.83
2018-06-08T04:32:35.461Z,20.63
2018-06-08T04:35:05.071Z,20.07
2018-06-08T04:37:35.480Z,21.80
2018-06-08T04:40:05.112Z,22.07
2018-06-08T04:42:35.584Z,24.27
2018-06-08T04:45:05.304Z,21.53
2018-06-08T04:47:35.489Z,22.73
2018-06-08T04:50:05.762Z,24.23
2018-06-08T04:52:36.631Z,21.50
2018-06-08T04:55:06.780Z,22.20
2018-06-08T04:57:37.190Z,23.07
2018-06-08T05:00:07.751Z,23.37
2018-06-08T05:02:38.090Z,22.67
2018-06-08T05:05:08.339Z,23.40
2018-06-08T05:07:38.725Z,25.17
2018-06-08T05:10:09.220Z,21.63
2018-06-08T05:12:39.220Z,21.93
2018-06-08T05:15:09.460Z,23.67
2018-06-08T05:17:40.140Z,23.70
2018-06-08T05:20:10.401Z,23.20
2018-06-08T05:22:41.009Z,23.83
2018-06-08T05:25:11.109Z,23.53
2018-06-08T05:27:41.450Z,20.67
2018-06-08T05:30:19.461Z,21.37
2018-06-08T05:32:49.967Z,20.10
2018-06-08T05:35:20.958Z,17.20
2018-06-08T05:37:51.327Z,17.47
2018-06-08T05:40:21.688Z,16.03
2018-06-08T05:42:52.105Z,15.67
2018-06-08T05:45:21.736Z,16.43
2018-06-08T05:47:52.319Z,14.80
2018-06-08T05:50:22.748Z,16.30
2018-06-08T05:52:53.477Z,16.40
2018-06-08T05:55:23.927Z,16.13
2018-06-08T05:57:54.313Z,17.53
2018-06-08T06:00:24.557Z,16.20
2018-06-08T06:02:55.219Z,16.83
2018-06-08T06:05:25.598Z,16.33
2018-06-08T06:07:55.897Z,17.77
2018-06-08T06:10:26.407Z,14.50
2018-06-08T06:12:56.687Z,14.17
2018-06-08T06:15:27.047Z,14.50
2018-06-08T06:17:57.477Z,17.10
2018-06-08T06:20:28.388Z,14.40
2018-06-08T06:22:58.887Z,13.50
2018-06-08T06:25:28.978Z,14.20
2018-06-08T06:27:59.267Z,14.57
2018-06-08T06:30:29.757Z,15.03
2018-06-08T06:33:00.052Z,14.43
2018-06-08T06:35:30.348Z,14.63
2018-06-08T06:38:00.677Z,15.10
2018-06-08T06:40:31.058Z,15.30
2018-06-08T06:43:01.478Z,14.93
2018-06-08T06:45:32.167Z,15.97
2018-06-08T06:48:02.546Z,15.40
2018-06-08T06:50:32.957Z,17.37
2018-06-08T06:53:03.417Z,16.87
2018-06-08T06:55:33.828Z,17.63
2018-06-08T06:58:04.327Z,18.33
2018-06-08T07:00:34.788Z,17.53
2018-06-08T07:03:05.937Z,17.07
2018-06-08T07:05:36.417Z,17.80
2018-06-08T07:08:06.887Z,17.57
2018-06-08T07:10:37.576Z,17.40
2018-06-08T07:13:08.997Z,16.53
2018-06-08T07:15:39.405Z,17.47
2018-06-08T07:18:09.377Z,16.13
2018-06-08T07:20:39.808Z,16.43
2018-06-08T07:23:10.658Z,17.30
2018-06-08T07:25:40.982Z,14.47
2018-06-08T07:28:11.588Z,14.80
2018-06-08T07:30:41.897Z,15.50
2018-06-08T07:33:12.387Z,15.00
2018-06-08T07:35:42.829Z,15.00
2018-06-08T07:38:13.596Z,14.83
2018-06-08T07:40:43.987Z,15.47
2018-06-08T07:43:14.519Z,15.47
2018-06-08T07:45:44.768Z,15.20
2018-06-08T07:48:15.037Z,14.57
2018-06-08T07:50:45.201Z,14.57
2018-06-08T07:53:15.546Z,14.90
2018-06-08T07:55:45.847Z,12.83
2018-06-08T07:58:16.017Z,13.23
2018-06-08T08:00:45.971Z,14.20
2018-06-08T08:03:17.617Z,13.53
2018-06-08T08:05:48.137Z,13.37
2018-06-08T08:08:18.378Z,14.93
2018-06-08T08:10:48.749Z,14.23
2018-06-08T08:13:19.077Z,13.70
2018-06-08T08:15:49.408Z,12.47
2018-06-08T08:18:19.976Z,12.17
2018-06-08T08:20:50.618Z,12.93
2018-06-08T08:23:21.468Z,12.70
2018-06-08T08:25:52.141Z,12.60
2018-06-08T08:28:22.497Z,8.77
2018-06-08T08:30:52.997Z,10.17
2018-06-08T08:33:23.281Z,9.67
2018-06-08T08:35:54.078Z,10.07
2018-06-08T08:38:23.938Z,9.83
2018-06-08T08:40:54.399Z,9.87
2018-06-08T08:43:24.828Z,10.43
2018-06-08T08:45:54.617Z,9.70
2018-06-08T08:48:25.055Z,10.33
2018-06-08T08:50:55.087Z,10.80
2018-06-08T08:53:25.647Z,9.03
2018-06-08T08:55:55.988Z,9.07
2018-06-08T08:58:26.056Z,7.97
2018-06-08T09:00:56.363Z,9.33
2018-06-08T09:03:26.717Z,10.07
2018-06-08T09:05:57.128Z,9.90
2018-06-08T09:08:27.088Z,8.40
2018-06-08T09:10:57.437Z,8.37
2018-06-08T09:13:28.178Z,9.13
2018-06-08T09:15:58.626Z,8.50
2018-06-08T09:18:28.397Z,8.33
2018-06-08T09:20:58.766Z,7.87
2018-06-08T09:23:29.139Z,8.77
2018-06-08T09:25:58.907Z,6.25
2018-06-08T09:28:28.956Z,7.07
2018-06-08T09:30:59.587Z,7.43
2018-06-08T09:33:30.407Z,7.00
2018-06-08T09:36:00.898Z,6.80
2018-06-08T09:38:31.108Z,7.45
2018-06-08T09:41:02.108Z,6.75
2018-06-08T09:43:32.318Z,7.10
2018-06-08T09:46:02.679Z,6.63
2018-06-08T09:48:33.556Z,6.45
2018-06-08T09:51:04.957Z,7.03
2018-06-08T09:53:35.067Z,7.22
2018-06-08T09:56:05.556Z,8.30
2018-06-08T09:58:35.967Z,8.87
2018-06-08T10:01:06.576Z,7.37
2018-06-08T10:03:36.860Z,7.20
2018-06-08T10:06:06.977Z,7.00
2018-06-08T10:08:37.166Z,7.45
2018-06-08T10:11:07.497Z,6.87
2018-06-08T10:13:38.010Z,6.20
2018-06-08T10:16:08.757Z,5.72
2018-06-08T10:18:39.098Z,6.28
2018-06-08T10:21:09.447Z,6.45
2018-06-08T10:23:39.828Z,6.25
2018-06-08T10:26:09.447Z,6.28
2018-06-08T10:28:39.788Z,6.00
2018-06-08T10:31:10.238Z,6.15
2018-06-08T10:33:40.140Z,5.90
2018-06-08T10:36:10.869Z,6.25
2018-06-08T10:38:41.218Z,6.33
2018-06-08T10:41:11.768Z,6.00
2018-06-08T10:43:42.349Z,5.87
2018-06-08T10:46:12.637Z,6.17
2018-06-08T10:48:43.360Z,7.20
2018-06-08T10:51:14.108Z,5.95
2018-06-08T10:53:44.438Z,5.80
2018-06-08T10:56:14.623Z,6.03
2018-06-08T10:58:45.057Z,6.03
2018-06-08T11:01:16.298Z,5.97
2018-06-08T11:03:46.426Z,6.28
2018-06-08T11:06:16.905Z,5.40
2018-06-08T11:08:47.195Z,5.72
2018-06-08T11:11:18.259Z,5.30
2018-06-08T11:13:48.222Z,5.25
2018-06-08T11:16:18.507Z,5.37
2018-06-08T11:18:48.306Z,5.15
2018-06-08T11:21:19.147Z,5.40
2018-06-08T11:23:49.339Z,5.42
2018-06-08T11:26:20.747Z,5.30
2018-06-08T11:28:51.977Z,5.08
2018-06-08T11:31:25.368Z,5.40
2018-06-08T11:33:58.779Z,5.28
2018-06-08T11:36:33.248Z,4.70
2018-06-08T11:47:35.768Z,4.72
2018-06-08T11:50:19.211Z,4.30
2018-06-08T11:52:55.888Z,3.90
2018-06-08T11:55:26.214Z,4.08
2018-06-08T11:57:57.216Z,5.25
2018-06-08T12:00:28.038Z,3.95
2018-06-08T12:02:58.698Z,3.98
2018-06-08T12:05:31.478Z,4.75
2018-06-08T12:08:02.097Z,12.78
2018-06-08T12:10:33.037Z,15.30
2018-06-08T12:13:03.398Z,4.10
2018-06-08T12:15:33.687Z,8.03
2018-06-08T12:18:04.129Z,3.25
2018-06-08T12:20:38.078Z,3.25
2018-06-08T12:23:09.940Z,4.17
2018-06-08T12:25:45.742Z,5.03
2018-06-08T12:28:17.688Z,3.12
2018-06-08T12:30:51.038Z,3.02
2018-06-08T12:33:22.486Z,4.83
2018-06-08T12:35:53.187Z,3.55
2018-06-08T12:38:25.664Z,4.83
2018-06-08T12:40:58.292Z,3.92
2018-06-08T12:43:29.477Z,4.10
2018-06-08T12:45:59.921Z,2.95
2018-06-08T12:48:31.198Z,2.92
2018-06-08T12:51:10.585Z,2.77
2018-06-08T12:53:52.638Z,3.90
2018-06-08T12:56:34.034Z,3.17
2018-06-08T12:59:14.919Z,2.67
2018-06-08T13:01:53.838Z,2.60
2018-06-08T13:04:30.086Z,2.77
2018-06-08T13:07:09.959Z,3.33
2018-06-08T13:09:52.583Z,3.20
2018-06-08T13:12:36.370Z,3.42
2018-06-08T13:15:14.697Z,3.12
2018-06-08T13:17:51.761Z,3.20
2018-06-08T13:20:27.502Z,3.15
2018-06-08T13:23:00.328Z,3.22
2018-06-08T13:25:30.708Z,3.55
2018-06-08T13:28:01.387Z,3.12
2018-06-08T13:30:32.124Z,3.60
2018-06-08T13:33:11.228Z,3.40
2018-06-08T13:36:01.772Z,3.52
2018-06-08T13:38:49.299Z,3.50
2018-06-08T13:41:26.968Z,3.87
2018-06-08T13:43:57.797Z,3.80
2018-06-08T13:46:51.678Z,3.50
2018-06-08T13:49:22.364Z,3.90
2018-06-08T13:51:53.777Z,3.80
2018-06-08T13:54:32.117Z,3.33
2018-06-08T13:57:04.698Z,4.17
2018-06-08T13:59:35.703Z,3.80
2018-06-08T14:02:07.657Z,4.40
2018-06-08T14:04:40.278Z,4.58
2018-06-08T14:07:20.646Z,3.77
2018-06-08T14:09:54.168Z,4.62
2018-06-08T14:12:26.968Z,4.33
2018-06-08T14:15:08.247Z,3.90
2018-06-08T14:17:41.552Z,3.95
2018-06-08T14:20:12.206Z,4.12
2018-06-08T14:22:42.706Z,4.25
2018-06-08T14:25:15.646Z,4.30
2018-06-08T14:27:47.922Z,4.50
2018-06-08T14:30:18.368Z,4.65
2018-06-08T14:32:57.450Z,4.60
2018-06-08T14:35:43.496Z,4.75
2018-06-08T14:38:15.908Z,4.72
2018-06-08T14:40:47.281Z,4.30
2018-06-08T14:43:22.577Z,4.50
2018-06-08T14:45:57.089Z,4.70
2018-06-08T14:48:29.084Z,4.70
2018-06-08T14:50:59.817Z,4.85
2018-06-08T14:53:35.100Z,4.67
2018-06-08T14:56:13.628Z,4.60
2018-06-08T14:58:49.967Z,4.85
2018-06-08T15:01:20.484Z,4.53
2018-06-08T15:03:50.906Z,4.83
2018-06-08T15:06:21.187Z,4.60
2018-06-08T15:08:54.867Z,4.72
2018-06-08T15:11:25.117Z,4.75
2018-06-08T15:13:56.218Z,4.80
2018-06-08T15:16:40.888Z,5.08
2018-06-08T15:19:13.888Z,4.70
2018-06-08T15:21:54.860Z,4.50
2018-06-08T15:24:31.878Z,4.80
2018-06-08T15:27:12.049Z,4.95
2018-06-08T15:29:44.338Z,5.12
2018-06-08T15:32:14.977Z,5.45
2018-06-08T15:34:45.449Z,6.10
2018-06-08T15:37:16.257Z,5.08
2018-06-08T15:39:46.887Z,4.50
2018-06-08T15:42:17.108Z,5.42
2018-06-08T15:44:46.895Z,4.78
2018-06-08T15:47:17.559Z,5.17
2018-06-08T15:49:47.987Z,6.60
2018-06-08T15:52:19.617Z,16.23
2018-06-08T15:54:53.517Z,25.40
2018-06-08T15:57:24.288Z,7.42
2018-06-08T15:59:54.968Z,12.47
2018-06-08T16:02:25.196Z,41.48
2018-06-08T16:04:55.557Z,10.10
2018-06-08T16:07:26.129Z,16.20
2018-06-08T16:09:56.778Z,22.40
2018-06-08T16:12:27.438Z,36.65
2018-06-08T16:15:00.394Z,27.20
2018-06-08T16:17:31.838Z,18.23
2018-06-08T16:20:02.151Z,6.12
2018-06-08T16:22:32.941Z,14.60
2018-06-08T16:25:03.926Z,10.28
2018-06-08T16:27:34.576Z,7.83
2018-06-08T16:30:07.571Z,7.53
2018-06-08T16:32:39.078Z,10.38
2018-06-08T16:35:09.519Z,6.80
2018-06-08T16:37:40.037Z,7.35
2018-06-08T16:40:11.030Z,7.30
2018-06-08T16:42:41.877Z,6.60
2018-06-08T16:45:12.887Z,8.35
2018-06-08T16:47:43.319Z,5.65
2018-06-08T16:50:14.440Z,7.00
2018-06-08T16:52:45.400Z,5.95
2018-06-08T16:55:16.849Z,6.70
2018-06-08T16:57:47.633Z,6.12
2018-06-08T17:00:18.388Z,6.72
2018-06-08T17:02:49.717Z,6.50
2018-06-08T17:05:19.857Z,6.42
2018-06-08T17:07:50.377Z,6.22
2018-06-08T17:10:20.647Z,6.30
2018-06-08T17:12:51.788Z,7.65
2018-06-08T17:15:22.278Z,6.22
2018-06-08T17:17:52.808Z,6.85
2018-06-08T17:20:23.289Z,7.47
2018-06-08T17:22:54.079Z,6.42
2018-06-08T17:25:24.727Z,6.55
2018-06-08T17:28:05.052Z,6.03
2018-06-08T17:30:58.047Z,6.80
2018-06-08T17:46:32.768Z,6.33
2018-06-08T17:49:16.188Z,7.30
2018-06-08T17:51:58.805Z,27.55
2018-06-08T17:54:44.688Z,14.87
2018-06-08T17:57:30.548Z,9.30
2018-06-08T18:00:11.968Z,41.92
2018-06-08T18:03:00.307Z,6.60
2018-06-08T18:05:42.107Z,6.53
2018-06-08T18:08:28.491Z,5.85
2018-06-08T18:11:14.866Z,5.65
2018-06-08T18:13:57.094Z,14.93
2018-06-08T18:16:45.398Z,5.80
2018-06-08T18:19:34.538Z,6.67
2018-06-08T18:22:17.479Z,6.73
2018-06-08T18:24:59.637Z,5.10
2018-06-08T18:27:42.258Z,5.75
2018-06-08T18:30:24.888Z,5.53
2018-06-08T18:33:06.658Z,9.37
2018-06-08T18:35:55.056Z,5.85
2018-06-08T18:39:01.494Z,8.10
2018-06-08T18:42:12.824Z,5.83
2018-06-08T18:45:29.133Z,4.90
2018-06-08T18:48:15.968Z,5.17
2018-06-08T18:51:02.680Z,5.70
2018-06-08T18:53:48.091Z,5.23
2018-06-08T18:56:35.317Z,5.57
2018-06-08T18:59:18.657Z,5.30
2018-06-08T19:02:06.996Z,5.63
2018-06-08T19:04:56.159Z,5.23
2018-06-08T19:07:42.931Z,5.70
2018-06-08T19:10:31.757Z,5.30
2018-06-08T19:13:18.372Z,4.93
2018-06-08T19:16:07.378Z,5.33
2018-06-08T19:18:50.988Z,5.23
2018-06-08T19:21:34.996Z,5.60
2018-06-08T19:24:21.312Z,5.40
2018-06-08T19:27:04.558Z,4.53
2018-06-08T19:29:44.306Z,4.83
2018-06-08T19:32:26.506Z,5.67
2018-06-08T19:35:18.948Z,5.07
2018-06-08T19:38:07.327Z,5.50
2018-06-08T19:40:49.497Z,5.00
2018-06-08T19:43:32.507Z,5.23
2018-06-08T19:46:16.357Z,4.70
2018-06-08T19:49:01.058Z,5.00
2018-06-08T19:51:52.447Z,5.40
2018-06-08T19:54:48.778Z,4.97
2018-06-08T19:57:30.567Z,5.13
2018-06-08T20:00:19.311Z,4.53
2018-06-08T20:03:01.118Z,5.43
2018-06-08T20:05:42.897Z,4.70
2018-06-08T20:08:24.699Z,5.70
2018-06-08T20:11:15.522Z,4.97
2018-06-08T20:13:58.518Z,4.50
2018-06-08T20:16:49.737Z,4.73
2018-06-08T20:19:31.532Z,5.47
2018-06-08T20:22:14.958Z,4.47
2018-06-08T20:24:58.819Z,4.73
2018-06-08T20:27:44.699Z,4.83
2018-06-08T20:30:31.038Z,5.50
2018-06-08T20:33:12.787Z,5.00
2018-06-08T20:35:53.337Z,4.80
2018-06-08T20:38:41.277Z,5.03
2018-06-08T20:41:27.548Z,4.70
2018-06-08T20:44:08.547Z,4.83
2018-06-08T20:46:48.318Z,4.17
2018-06-08T20:49:33.407Z,4.57
2018-06-08T20:52:24.576Z,5.20
2018-06-08T20:55:12.507Z,5.40
2018-06-08T20:58:06.186Z,5.67
2018-06-08T21:00:57.141Z,5.00
2018-06-08T21:03:39.218Z,4.83
2018-06-08T21:06:25.487Z,6.03
2018-06-08T21:09:16.133Z,5.37
2018-06-08T21:11:58.908Z,5.47
2018-06-08T21:14:43.147Z,5.00
2018-06-08T21:17:24.297Z,5.33
2018-06-08T21:20:05.507Z,5.27
2018-06-08T21:22:45.668Z,5.10
2018-06-08T21:25:29.921Z,5.17
2018-06-08T21:46:13.878Z,5.47
2018-06-08T21:49:00.990Z,5.63
2018-06-08T21:51:49.087Z,5.00
2018-06-08T21:54:31.988Z,5.80
2018-06-08T21:57:12.587Z,5.53
2018-06-08T22:00:00.852Z,5.80
2018-06-08T22:02:43.068Z,5.73
2018-06-08T22:05:29.388Z,6.07
2018-06-08T22:08:12.788Z,5.17
2018-06-08T22:10:58.717Z,6.10
2018-06-08T22:13:43.808Z,5.97
2018-06-08T22:16:24.678Z,5.30
2018-06-08T22:19:06.920Z,6.10
2018-06-08T22:21:49.517Z,6.03
2018-06-08T22:24:31.739Z,6.03
2018-06-08T22:27:16.858Z,5.97
2018-06-08T22:30:04.647Z,5.97
2018-06-08T22:32:53.547Z,5.83
2018-06-08T22:35:41.567Z,5.90
2018-06-08T22:38:29.827Z,4.87
2018-06-08T22:41:14.849Z,6.23
2018-06-08T22:43:59.848Z,6.20
2018-06-08T22:46:43.358Z,6.07
2018-06-08T22:49:30.888Z,5.97
2018-06-08T22:52:12.317Z,5.60
2018-06-08T22:54:55.708Z,5.33
2018-06-08T22:57:37.127Z,5.90
2018-06-08T23:00:20.938Z,5.77
2018-06-08T23:03:12.127Z,5.73
2018-06-08T23:06:01.058Z,5.77
2018-06-08T23:08:44.317Z,6.53
2018-06-08T23:11:27.337Z,6.30
2018-06-08T23:14:10.778Z,5.70
2018-06-08T23:16:56.722Z,6.27
2018-06-08T23:19:35.989Z,5.53
2018-06-08T23:22:17.368Z,6.10
2018-06-08T23:24:57.088Z,5.87
2018-06-08T23:27:38.476Z,5.80
2018-06-08T23:30:22.950Z,6.30
2018-06-08T23:33:13.258Z,6.57
2018-06-08T23:35:57.038Z,5.70
2018-06-08T23:38:39.037Z,5.40
2018-06-08T23:41:25.896Z,5.93
2018-06-08T23:44:06.467Z,6.07
2018-06-08T23:46:49.887Z,5.97
2018-06-08T23:49:32.136Z,6.03
2018-06-08T23:52:19.658Z,6.23
2018-06-08T23:54:59.807Z,7.17
2018-06-08T23:57:42.007Z,6.73
